Time;durP1;ratioP1;P1;durP2;ratioP2;P2;SDS_P1;SDS_P2;PMS_P1;PMS_P2;Temp;Humidity;BMP_temperature;BMP_pressure;BME280_temperature;BME280_humidity;BME280_pressure;Samples;Min_cycle;Max_cycle;Signal;HPM_P1;HPM_P2
2022/07/29 00:01:20;;;;;;;8.20;1.58;;;;;;;10.69;100.00;155212.16;4999735;28;20140;-72
2022/07/29 00:03:47;;;;;;;9.55;1.45;;;;;;;10.70;100.00;155214.75;4998896;28;20109;-72
2022/07/29 00:06:13;;;;;;;3.78;1.58;;;;;;;10.67;100.00;155207.03;5014159;28;20459;-73
2022/07/29 00:08:39;;;;;;;6.95;1.92;;;;;;;10.63;100.00;155195.50;5000521;28;20054;-73
2022/07/29 00:11:04;;;;;;;5.07;1.63;;;;;;;10.58;100.00;155183.94;4991385;28;20030;-73
2022/07/29 00:13:30;;;;;;;3.92;1.38;;;;;;;10.59;100.00;155186.53;4997769;28;20124;-72
2022/07/29 00:15:56;;;;;;;5.18;1.52;;;;;;;10.55;100.00;155174.94;4994824;28;20049;-73
2022/07/29 00:18:21;;;;;;;7.32;1.90;;;;;;;10.49;100.00;155162.16;4996845;28;20139;-72
2022/07/29 00:20:47;;;;;;;2.95;1.48;;;;;;;10.43;100.00;155146.72;5012541;28;20366;-72
2022/07/29 00:23:12;;;;;;;5.57;2.08;;;;;;;10.37;100.00;155131.34;4992528;28;20835;-73
2022/07/29 00:25:38;;;;;;;5.70;1.52;;;;;;;10.29;100.00;155112.06;5013228;28;20042;-73
2022/07/29 00:28:04;;;;;;;7.45;2.05;;;;;;;10.21;100.00;155090.22;5010596;28;20172;-73
2022/07/29 00:30:29;;;;;;;8.23;1.73;;;;;;;10.17;100.00;155081.31;4999236;28;20658;-74
2022/07/29 00:32:55;;;;;;;3.95;1.63;;;;;;;10.17;100.00;155081.31;4983490;28;20712;-73
2022/07/29 00:38:05;;;;;;;5.05;1.45;;;;;;;10.16;100.00;155077.44;4996582;28;20029;-74
2022/07/29 00:40:31;;;;;;;8.20;1.77;;;;;;;10.11;100.00;155067.19;5013140;28;20037;-72
2022/07/29 00:42:56;;;;;;;4.55;1.90;;;;;;;10.00;100.00;155038.97;4983802;28;20037;-73
2022/07/29 00:45:22;;;;;;;3.50;1.80;;;;;;;10.00;100.00;155038.97;5002975;28;20088;-73
2022/07/29 00:47:48;;;;;;;7.85;1.60;;;;;;;9.98;100.00;155033.81;4994068;28;20430;-73
2022/07/29 00:50:14;;;;;;;5.90;1.60;;;;;;;9.94;100.00;155023.56;4994870;28;20042;-70
2022/07/29 00:52:41;;;;;;;4.10;1.65;;;;;;;9.93;100.00;155022.28;4991349;28;20026;-72
2022/07/29 00:55:10;;;;;;;6.22;1.80;;;;;;;9.91;100.00;155017.16;4994534;28;20070;-73
2022/07/29 00:57:37;;;;;;;5.88;1.83;;;;;;;9.87;100.00;155006.91;4998780;28;20080;-72
2022/07/29 01:00:04;;;;;;;7.82;1.75;;;;;;;9.84;100.00;154997.94;4996766;28;20038;-73
2022/07/29 01:02:30;;;;;;;3.67;1.70;;;;;;;9.88;100.00;155009.44;4999601;28;20036;-73
2022/07/29 01:04:56;;;;;;;5.75;1.90;;;;;;;9.92;100.00;155019.69;4998437;28;20034;-73
2022/07/29 01:07:24;;;;;;;4.15;1.70;;;;;;;10.02;100.00;155044.09;5009865;28;21493;-73
2022/07/29 01:09:51;;;;;;;2.42;1.80;;;;;;;10.03;100.00;155045.38;5007387;28;20033;-72
2022/07/29 01:12:22;;;;;;;5.63;2.03;;;;;;;10.12;100.00;155068.47;4994579;28;20041;-72
2022/07/29 01:14:49;;;;;;;6.25;1.80;;;;;;;10.14;100.00;155074.84;4993731;28;20027;-72
2022/07/29 01:17:24;;;;;;;7.25;1.77;;;;;;;10.16;100.00;155078.72;4996716;28;20129;-73
2022/07/29 01:19:52;;;;;;;3.40;1.92;;;;;;;10.31;100.00;155115.97;4995066;28;20096;-74
2022/07/29 01:22:28;;;;;;;3.25;1.60;;;;;;;10.37;100.00;155130.06;4996964;28;20037;-72
2022/07/29 01:24:57;;;;;;;5.30;1.92;;;;;;;10.36;100.00;155127.50;4997911;28;20061;-72
2022/07/29 01:27:22;;;;;;;4.72;2.22;;;;;;;10.37;100.00;155130.06;4995022;28;20153;-74
2022/07/29 01:29:56;;;;;;;5.95;1.92;;;;;;;10.38;100.00;155133.94;4981843;28;20124;-74
2022/07/29 01:32:26;;;;;;;8.38;2.10;;;;;;;10.44;100.00;155149.31;4993905;28;20088;-72
2022/07/29 01:35:14;;;;;;;4.60;1.90;;;;;;;10.42;100.00;155142.91;5014019;28;20038;-73
2022/07/29 01:37:42;;;;;;;6.85;2.35;;;;;;;10.43;100.00;155146.72;4996156;28;20038;-73
2022/07/29 01:40:21;;;;;;;6.07;1.80;;;;;;;10.43;100.00;155146.72;4999520;28;20530;-73
2022/07/29 01:42:52;;;;;;;6.00;1.88;;;;;;;10.41;100.00;155140.34;4991043;28;20034;-73
2022/07/29 01:45:37;;;;;;;9.00;2.28;;;;;;;10.49;100.00;155162.16;4994032;28;20042;-73
2022/07/29 01:48:15;;;;;;;6.30;2.08;;;;;;;10.51;100.00;155166.00;5009553;28;20434;-71
2022/07/29 01:50:47;;;;;;;9.10;2.28;;;;;;;10.47;100.00;155155.72;4996872;28;20052;-72
2022/07/29 01:53:21;;;;;;;9.68;2.17;;;;;;;10.46;100.00;155153.16;4994444;28;20531;-73
2022/07/29 01:55:49;;;;;;;3.03;1.90;;;;;;;10.56;100.00;155177.53;4992528;28;20065;-73
2022/07/29 01:58:18;;;;;;;5.45;2.22;;;;;;;10.56;100.00;155178.81;4998767;28;20038;-72
2022/07/29 02:00:46;;;;;;;5.68;2.10;;;;;;;10.57;100.00;155180.06;4992284;28;20065;-72
2022/07/29 02:03:16;;;;;;;10.82;2.40;;;;;;;10.60;100.00;155189.06;5003282;28;20419;-72
2022/07/29 02:05:45;;;;;;;5.68;2.08;;;;;;;10.65;100.00;155200.63;4984024;28;20045;-72
2022/07/29 02:08:13;;;;;;;5.85;2.30;;;;;;;10.64;100.00;155199.38;4995732;28;20037;-71
2022/07/29 02:10:40;;;;;;;4.38;2.13;;;;;;;10.63;100.00;155196.78;4998455;28;20746;-72
2022/07/29 02:13:08;;;;;;;8.90;2.45;;;;;;;10.57;100.00;155181.41;4996273;28;20040;-72
2022/07/29 02:15:35;;;;;;;5.05;2.10;;;;;;;10.59;100.00;155185.25;5018243;28;20045;-72
2022/07/29 02:18:16;;;;;;;6.28;2.35;;;;;;;10.59;100.00;155185.25;5035036;22;20052;-75
2022/07/29 02:20:46;;;;;;;7.05;2.33;;;;;;;10.60;100.00;155187.78;4997899;28;20053;-75
2022/07/29 02:23:17;;;;;;;11.52;2.53;;;;;;;10.66;100.00;155204.50;5016619;28;20033;-75
2022/07/29 02:25:42;;;;;;;6.15;2.40;;;;;;;10.66;100.00;155204.50;5022473;28;20044;-76
2022/07/29 02:28:08;;;;;;;4.72;2.25;;;;;;;10.64;100.00;155198.03;5002197;28;20041;-75
2022/07/29 02:30:40;;;;;;;5.15;2.13;;;;;;;10.60;100.00;155187.78;5022933;28;20045;-76
2022/07/29 02:33:08;;;;;;;5.75;2.28;;;;;;;10.57;100.00;155180.06;5039113;28;20401;-74
2022/07/29 02:35:34;;;;;;;6.93;2.20;;;;;;;10.58;100.00;155183.94;5028094;28;20072;-76
2022/07/29 02:40:46;;;;;;;4.05;2.15;;;;;;;10.54;100.00;155173.69;5050834;28;20461;-75
2022/07/29 02:43:12;;;;;;;4.13;2.47;;;;;;;10.49;100.00;155162.16;5025503;28;20091;-76
2022/07/29 02:45:38;;;;;;;6.28;2.30;;;;;;;10.53;100.00;155171.13;5030191;28;20049;-75
2022/07/29 02:48:10;;;;;;;7.32;2.20;;;;;;;10.50;100.00;155164.69;5017613;28;20044;-76
2022/07/29 02:50:44;;;;;;;6.07;2.10;;;;;;;10.51;100.00;155166.00;5034060;28;20045;-76
2022/07/29 02:53:17;;;;;;;7.18;2.42;;;;;;;10.51;100.00;155167.28;5029347;28;20287;-74
2022/07/29 02:55:48;;;;;;;4.82;2.35;;;;;;;10.52;100.00;155168.56;5039377;28;20127;-76
2022/07/29 02:58:28;;;;;;;5.60;2.40;;;;;;;10.56;100.00;155178.81;5044822;28;20041;-75
2022/07/29 03:00:56;;;;;;;4.63;2.30;;;;;;;10.55;100.00;155176.28;5044037;28;20052;-75
2022/07/29 03:03:25;;;;;;;6.60;2.40;;;;;;;10.53;100.00;155171.13;5025291;28;20036;-74
2022/07/29 03:05:56;;;;;;;8.90;2.30;;;;;;;10.59;100.00;155186.53;5018449;28;20040;-76
2022/07/29 03:08:23;;;;;;;7.82;2.30;;;;;;;10.62;100.00;155192.91;5045181;28;20079;-75
2022/07/29 03:10:49;;;;;;;8.13;2.60;;;;;;;10.60;100.00;155189.06;5036065;28;20082;-75
2022/07/29 03:13:16;;;;;;;7.10;2.33;;;;;;;10.60;100.00;155189.06;5025850;28;20029;-76
2022/07/29 03:15:43;;;;;;;6.35;2.10;;;;;;;10.54;100.00;155172.41;5027307;28;20041;-76
2022/07/29 03:18:09;;;;;;;7.18;2.08;;;;;;;10.58;100.00;155183.94;5032209;28;20037;-76
2022/07/29 03:20:36;;;;;;;6.45;2.35;;;;;;;10.57;100.00;155180.06;5030475;28;20154;-75
2022/07/29 03:23:02;;;;;;;6.57;2.40;;;;;;;10.55;100.00;155176.28;5039720;28;20517;-75
2022/07/29 03:25:27;;;;;;;4.50;2.20;;;;;;;10.52;100.00;155168.56;5033254;28;20120;-76
2022/07/29 03:27:53;;;;;;;7.78;2.40;;;;;;;10.47;100.00;155157.03;5024898;28;20068;-76
2022/07/29 03:30:19;;;;;;;8.98;2.53;;;;;;;10.47;100.00;155155.72;5027187;28;20107;-75
2022/07/29 03:32:44;;;;;;;5.97;2.60;;;;;;;10.51;100.00;155166.00;5030926;28;20063;-74
2022/07/29 03:35:10;;;;;;;4.13;2.17;;;;;;;10.46;100.00;155154.44;5044400;28;20153;-76
2022/07/29 03:37:36;;;;;;;6.47;2.40;;;;;;;10.46;100.00;155154.44;5045225;28;20046;-77
2022/07/29 03:40:06;;;;;;;5.72;2.60;;;;;;;10.42;100.00;155144.19;5026404;28;20095;-76
2022/07/29 03:42:35;;;;;;;6.38;2.05;;;;;;;10.50;100.00;155163.44;5035982;28;20048;-75
2022/07/29 03:45:05;;;;;;;6.55;2.17;;;;;;;10.46;100.00;155153.16;5026510;28;20033;-77
2022/07/29 03:47:34;;;;;;;7.38;2.50;;;;;;;10.46;100.00;155154.44;5022283;28;20046;-75
2022/07/29 03:50:06;;;;;;;5.68;2.08;;;;;;;10.49;100.00;155162.16;5027360;28;20034;-75
2022/07/29 03:52:32;;;;;;;6.05;2.20;;;;;;;10.54;100.00;155172.41;5042008;28;20064;-75
2022/07/29 03:54:58;;;;;;;7.22;2.50;;;;;;;10.55;100.00;155174.94;5028485;28;20044;-76
2022/07/29 03:57:28;;;;;;;5.22;2.20;;;;;;;10.55;100.00;155174.94;5010627;28;20048;-76
2022/07/29 03:59:54;;;;;;;7.40;2.58;;;;;;;10.54;100.00;155173.69;5027821;28;20524;-76
2022/07/29 04:02:20;;;;;;;8.30;3.05;;;;;;;10.56;100.00;155178.81;5025008;28;20092;-74
2022/07/29 04:04:46;;;;;;;5.80;2.40;;;;;;;10.60;100.00;155189.06;5044337;28;20436;-75
2022/07/29 04:07:13;;;;;;;6.90;2.50;;;;;;;10.71;100.00;155216.03;5023895;28;20040;-76
2022/07/29 04:09:39;;;;;;;7.57;2.55;;;;;;;10.77;100.00;155231.41;5028240;28;20405;-76
2022/07/29 04:12:05;;;;;;;11.10;2.47;;;;;;;10.82;100.00;155244.25;5010920;28;20051;-75
2022/07/29 04:14:32;;;;;;;6.50;2.45;;;;;;;10.94;100.00;155273.75;5031114;28;20555;-75
2022/07/29 04:16:58;;;;;;;9.48;2.78;;;;;;;10.99;100.00;155286.59;5028329;28;20037;-75
2022/07/29 04:19:24;;;;;;;5.68;2.33;;;;;;;11.00;100.00;155287.88;5035557;28;20072;-75
2022/07/29 04:21:50;;;;;;;6.53;2.42;;;;;;;11.10;100.00;155314.81;5049538;28;20071;-75
2022/07/29 04:24:15;;;;;;;12.10;2.75;;;;;;;11.23;100.00;155345.66;5030290;28;20112;-75
2022/07/29 04:26:42;;;;;;;9.65;2.45;;;;;;;11.26;100.00;155354.63;5028378;28;20079;-75
2022/07/29 04:29:07;;;;;;;5.53;2.25;;;;;;;11.20;100.00;155339.19;5022030;28;20047;-74
2022/07/29 04:31:33;;;;;;;6.88;2.17;;;;;;;11.32;100.00;155368.75;5049735;28;20029;-78
2022/07/29 04:33:59;;;;;;;10.68;2.67;;;;;;;11.33;100.00;155370.03;5030766;28;20048;-74
2022/07/29 04:36:24;;;;;;;4.63;2.30;;;;;;;11.30;100.00;155363.56;5022786;28;20102;-77
2022/07/29 04:38:50;;;;;;;4.85;2.58;;;;;;;11.46;100.00;155404.66;5024248;28;20044;-76
2022/07/29 04:41:15;;;;;;;7.53;2.28;;;;;;;11.51;100.00;155416.25;5044362;28;20037;-75
2022/07/29 04:43:41;;;;;;;5.40;2.28;;;;;;;11.63;100.00;155445.75;5039806;28;20445;-75
2022/07/29 04:46:07;;;;;;;6.00;2.60;;;;;;;11.68;100.00;155458.63;5032915;28;20053;-74
2022/07/29 04:48:33;;;;;;;5.68;2.10;;;;;;;11.70;100.00;155463.75;5027949;28;20040;-76
2022/07/29 04:50:59;;;;;;;8.43;2.30;;;;;;;11.80;100.00;155489.41;5024224;28;20491;-76
2022/07/29 04:53:24;;;;;;;8.60;2.35;;;;;;;11.84;100.00;155499.66;5038563;28;20029;-76
2022/07/29 04:55:50;;;;;;;4.05;2.10;;;;;;;11.95;100.00;155525.41;5039090;28;20049;-76
2022/07/29 04:58:18;;;;;;;5.68;2.55;;;;;;;11.90;100.00;155513.84;5046968;28;20040;-75
2022/07/29 05:00:44;;;;;;;6.75;2.50;;;;;;;11.98;100.00;155533.09;5016406;28;20037;-77
2022/07/29 05:03:09;;;;;;;4.78;2.17;;;;;;;12.06;100.00;155553.66;5032727;28;20035;-74
2022/07/29 05:05:35;;;;;;;9.23;2.40;;;;;;;12.11;100.00;155566.53;5034187;28;20524;-76
2022/07/29 05:08:01;;;;;;;6.03;2.15;;;;;;;12.16;100.00;155579.34;5018269;28;20115;-76
2022/07/29 05:10:28;;;;;;;10.50;2.63;;;;;;;12.23;100.00;155596.06;5026399;28;20136;-75
2022/07/29 05:12:54;;;;;;;7.45;2.28;;;;;;;12.33;100.00;155621.72;5046321;28;20036;-74
2022/07/29 05:15:19;;;;;;;10.07;2.58;;;;;;;12.48;100.00;155658.97;5063623;28;20134;-74
2022/07/29 05:17:45;;;;;;;5.25;2.30;;;;;;;12.62;100.00;155694.94;5052102;28;20135;-75
2022/07/29 05:20:10;;;;;;;8.63;3.00;;;;;;;12.75;100.00;155725.75;5027548;28;20139;-75
2022/07/29 05:22:36;;;;;;;8.15;2.50;;;;;;;12.94;100.00;155774.63;5045002;28;20047;-75
2022/07/29 05:25:02;;;;;;;9.48;2.65;;;;;;;13.07;100.00;155806.69;5026802;28;20097;-76
2022/07/29 05:27:28;;;;;;;5.93;2.47;;;;;;;13.20;100.00;155838.81;5034578;28;20037;-75
2022/07/29 05:29:53;;;;;;;7.25;3.08;;;;;;;13.24;100.00;155849.09;5028224;28;20083;-76
2022/07/29 05:32:19;;;;;;;5.80;2.50;;;;;;;13.31;100.00;155865.88;5031967;28;20045;-74
2022/07/29 05:34:44;;;;;;;6.80;2.08;;;;;;;13.42;100.00;155894.16;5025053;28;20065;-75
2022/07/29 05:37:13;;;;;;;4.95;2.38;;;;;;;13.43;100.00;155898.00;5002905;28;20037;-75
2022/07/29 05:39:39;;;;;;;5.80;2.10;;;;;;;13.53;100.00;155921.16;5027652;28;20080;-75
2022/07/29 05:42:09;;;;;;;5.53;1.95;;;;;;;13.65;100.00;155950.69;5036972;28;20037;-74
2022/07/29 05:44:39;;;;;;;4.47;1.83;;;;;;;13.80;100.00;155989.25;5055245;28;20033;-77
2022/07/29 05:47:06;;;;;;;5.15;2.28;;;;;;;13.93;100.00;156021.41;5042922;28;20029;-76
2022/07/29 05:49:32;;;;;;;7.18;1.98;;;;;;;14.14;100.00;156074.09;5045090;28;20033;-76
2022/07/29 05:51:58;;;;;;;6.43;2.25;;;;;;;14.24;100.00;156099.84;5032352;28;20086;-77
2022/07/29 05:54:24;;;;;;;5.32;2.03;;;;;;;14.56;100.00;156179.53;5024328;28;20120;-77
2022/07/29 05:56:49;;;;;;;3.05;1.80;;;;;;;14.77;98.78;156233.63;5026807;28;20398;-76
2022/07/29 05:59:15;;;;;;;5.97;1.88;;;;;;;14.93;96.51;156273.50;5021027;28;20037;-76
2022/07/29 06:01:41;;;;;;;6.30;1.60;;;;;;;15.10;96.90;156314.69;5010829;28;20043;-74
2022/07/29 06:04:07;;;;;;;5.43;1.95;;;;;;;15.31;98.37;156367.41;5008569;28;20389;-76
2022/07/29 06:06:34;;;;;;;5.05;1.75;;;;;;;15.44;95.44;156400.88;5037883;28;20040;-75
2022/07/29 06:09:00;;;;;;;7.50;2.10;;;;;;;15.59;95.71;156438.19;5018565;28;20040;-76
2022/07/29 06:11:26;;;;;;;5.75;1.92;;;;;;;15.71;95.07;156467.81;5024997;28;20036;-75
2022/07/29 06:13:52;;;;;;;2.92;1.67;;;;;;;15.64;92.97;156451.06;5004467;28;20037;-74
2022/07/29 06:16:19;;;;;;;4.55;1.92;;;;;;;15.51;94.99;156418.88;5035603;28;20044;-75
2022/07/29 06:18:44;;;;;;;6.70;2.03;;;;;;;15.42;97.07;156394.44;5032617;28;20033;-74
2022/07/29 06:21:11;;;;;;;12.38;1.88;;;;;;;15.41;94.07;156391.84;5027501;28;20040;-76
2022/07/29 06:23:38;;;;;;;4.90;1.63;;;;;;;15.36;95.38;156381.56;5036541;28;20489;-76
2022/07/29 06:26:04;;;;;;;6.85;1.75;;;;;;;15.46;92.74;156404.72;5013927;28;20505;-77
2022/07/29 06:28:29;;;;;;;9.82;1.85;;;;;;;15.49;92.84;156413.75;5023172;28;20049;-75
2022/07/29 06:30:55;;;;;;;5.88;2.10;;;;;;;15.54;94.99;156426.63;5006882;28;20044;-76
2022/07/29 06:33:21;;;;;;;5.50;1.65;;;;;;;15.62;92.50;156444.66;5037536;28;20044;-76
2022/07/29 06:35:47;;;;;;;5.65;2.10;;;;;;;15.81;91.81;156492.31;5024236;28;20037;-77
2022/07/29 06:38:13;;;;;;;5.78;1.73;;;;;;;15.98;92.45;156536.06;5049361;28;20421;-76
2022/07/29 06:43:47;;;;;;;6.75;1.90;;;;;;;15.80;92.39;156491.00;4996147;28;20112;-78
2022/07/29 06:46:15;;;;;;;6.45;1.98;;;;;;;15.77;92.85;156483.31;4990448;28;20037;-76
2022/07/29 06:48:42;;;;;;;7.07;1.63;;;;;;;15.75;94.97;156478.16;5001407;28;20053;-77
2022/07/29 06:51:08;;;;;;;7.88;1.92;;;;;;;15.88;93.18;156511.63;5012664;28;20109;-76
2022/07/29 06:53:35;;;;;;;5.53;1.98;;;;;;;15.89;93.15;156512.88;5038788;28;20486;-75
2022/07/29 06:56:02;;;;;;;7.07;2.17;;;;;;;15.94;93.59;156527.06;5019104;28;20075;-75
2022/07/29 06:58:29;;;;;;;3.03;1.50;;;;;;;16.05;91.27;156552.78;5032617;28;20436;-76
2022/07/29 07:01:00;;;;;;;6.40;1.60;;;;;;;16.08;92.70;156561.78;5011734;28;20037;-77
2022/07/29 07:03:26;;;;;;;9.43;1.80;;;;;;;15.99;93.29;156538.63;5031380;28;20110;-75
2022/07/29 07:05:53;;;;;;;8.43;1.80;;;;;;;15.97;94.36;156533.47;5021688;28;20429;-76
2022/07/29 07:08:20;;;;;;;4.28;2.00;;;;;;;15.94;94.14;156525.78;5025342;28;20086;-77
2022/07/29 07:10:46;;;;;;;7.00;1.75;;;;;;;15.97;94.61;156533.47;5040234;28;20512;-75
2022/07/29 07:13:12;;;;;;;4.57;1.92;;;;;;;16.05;95.41;156552.78;5032150;28;20033;-75
2022/07/29 07:15:38;;;;;;;3.40;1.70;;;;;;;16.14;94.14;156575.94;5030112;28;20068;-75
2022/07/29 07:18:05;;;;;;;8.13;1.80;;;;;;;16.15;94.82;156579.81;5017365;28;20088;-77
2022/07/29 07:20:35;;;;;;;5.47;2.03;;;;;;;16.10;92.75;156565.66;5038185;28;20041;-75
2022/07/29 07:23:00;;;;;;;3.60;1.92;;;;;;;16.23;94.01;156597.84;5026247;28;20029;-77
2022/07/29 07:25:26;;;;;;;7.47;1.95;;;;;;;16.30;92.56;156617.16;5004688;28;20397;-77
2022/07/29 07:27:52;;;;;;;5.63;2.00;;;;;;;16.35;91.54;156628.78;5006326;28;20091;-74
2022/07/29 07:30:17;;;;;;;4.13;1.60;;;;;;;16.42;91.55;156646.75;5021151;28;20152;-77
2022/07/29 07:32:43;;;;;;;4.20;1.75;;;;;;;16.55;93.30;156678.94;5034148;28;20045;-75
2022/07/29 07:35:10;;;;;;;5.00;1.83;;;;;;;16.72;91.47;156721.44;5022430;28;20040;-76
2022/07/29 07:37:35;;;;;;;6.82;1.98;;;;;;;16.81;90.37;156744.63;5030436;28;20076;-75
2022/07/29 07:40:02;;;;;;;5.72;1.70;;;;;;;16.86;90.60;156756.28;5023571;28;20057;-75
2022/07/29 07:42:27;;;;;;;5.07;1.80;;;;;;;16.87;89.95;156758.84;5025485;28;20041;-74
2022/07/29 07:44:53;;;;;;;10.00;1.80;;;;;;;16.86;90.06;156756.28;5029206;28;20087;-74
2022/07/29 07:47:23;;;;;;;8.32;2.10;;;;;;;17.01;91.67;156794.91;5029274;28;20032;-76
2022/07/29 07:49:53;;;;;;;8.15;1.95;;;;;;;17.25;87.79;156854.16;5029994;28;20028;-78
2022/07/29 07:52:20;;;;;;;7.68;1.95;;;;;;;17.48;87.13;156913.44;5039103;28;20036;-75
2022/07/29 07:54:47;;;;;;;6.90;1.73;;;;;;;17.69;86.46;156966.25;5019153;28;20025;-77
2022/07/29 07:57:14;;;;;;;4.55;2.08;;;;;;;18.03;87.94;157050.06;5032587;28;20048;-76
2022/07/29 07:59:40;;;;;;;3.97;1.60;;;;;;;18.43;86.33;157151.84;5029287;28;20035;-76
2022/07/29 08:02:06;;;;;;;4.43;1.52;;;;;;;18.63;82.06;157200.88;5046041;28;20039;-75
2022/07/29 08:04:36;;;;;;;5.35;1.85;;;;;;;18.88;83.42;157264.06;5043739;28;20094;-75
2022/07/29 08:07:02;;;;;;;7.45;1.85;;;;;;;19.04;83.18;157304.03;5026023;28;20052;-74
2022/07/29 08:09:28;;;;;;;5.90;1.70;;;;;;;19.33;82.89;157377.53;5009212;28;20136;-76
2022/07/29 08:11:55;;;;;;;3.60;1.40;;;;;;;19.48;77.54;157413.63;5027979;28;20041;-75
2022/07/29 08:14:21;;;;;;;3.33;1.63;;;;;;;19.67;76.62;157462.66;5050238;28;20509;-76
2022/07/29 08:16:47;;;;;;;5.93;1.75;;;;;;;19.73;78.59;157478.19;5044343;28;20037;-76
2022/07/29 08:19:13;;;;;;;4.70;1.60;;;;;;;19.78;76.60;157491.09;5018625;23;21330;-72
2022/07/29 08:21:39;;;;;;;6.60;1.70;;;;;;;19.74;76.36;157479.47;5008926;28;20116;-72
2022/07/29 08:26:50;;;;;;;3.90;1.63;;;;;;;19.91;78.45;157523.34;5016747;28;20030;-71
2022/07/29 08:29:16;;;;;;;3.75;1.83;;;;;;;20.06;75.44;157559.44;4990557;28;20114;-72
2022/07/29 08:31:41;;;;;;;6.30;1.70;;;;;;;20.06;76.67;157559.44;4990357;28;20035;-72
2022/07/29 08:34:08;;;;;;;6.18;1.80;;;;;;;20.22;74.22;157602.00;4988676;28;20054;-73
2022/07/29 08:36:34;;;;;;;5.40;1.38;;;;;;;20.36;73.46;157636.88;5005135;28;20104;-73
2022/07/29 08:39:00;;;;;;;6.78;1.48;;;;;;;20.38;73.47;157640.72;4973458;28;20766;-72
2022/07/29 08:41:26;;;;;;;5.63;1.67;;;;;;;20.57;71.96;157689.78;5004357;28;20041;-72
2022/07/29 08:43:52;;;;;;;7.30;1.85;;;;;;;20.63;72.71;157702.75;4987209;28;20069;-72
2022/07/29 08:46:19;;;;;;;3.72;1.58;;;;;;;20.69;71.41;157718.22;5002920;28;20089;-72
2022/07/29 08:48:45;;;;;;;4.80;1.45;;;;;;;20.75;70.50;157734.97;4990033;28;20064;-72
2022/07/29 08:51:16;;;;;;;5.93;1.70;;;;;;;21.03;71.55;157803.41;4986011;28;20491;-73
2022/07/29 08:53:43;;;;;;;6.63;1.65;;;;;;;21.21;70.17;157849.88;5002527;28;20038;-72
2022/07/29 08:56:13;;;;;;;7.80;1.80;;;;;;;21.57;69.44;157941.59;5003181;28;20031;-72
2022/07/29 08:58:39;;;;;;;5.68;1.90;;;;;;;21.71;65.72;157975.16;5018728;28;20034;-72
2022/07/29 09:01:06;;;;;;;7.07;1.50;;;;;;;21.96;67.33;158039.75;4984570;28;20535;-72
2022/07/29 09:03:35;;;;;;;8.13;1.60;;;;;;;21.55;67.07;157935.16;4971492;28;20121;-72
2022/07/29 09:06:03;;;;;;;5.13;1.50;;;;;;;21.24;67.93;157857.59;4987515;28;20559;-71
2022/07/29 09:08:31;;;;;;;2.20;1.35;;;;;;;21.35;66.86;157886.00;4987516;28;20145;-72
2022/07/29 09:10:58;;;;;;;6.15;1.73;;;;;;;21.72;67.35;157977.75;4988729;28;20395;-72
2022/07/29 09:13:24;;;;;;;5.72;1.65;;;;;;;21.93;68.70;158030.69;4986884;28;20442;-72
2022/07/29 09:15:50;;;;;;;6.25;1.95;;;;;;;21.77;64.32;157990.63;4986764;28;20045;-73
2022/07/29 09:18:42;;;;;;;5.93;1.85;;;;;;;21.62;67.34;157953.19;4985708;28;20033;-72
2022/07/29 09:24:12;;;;;;;11.48;1.73;;;;;;;21.34;68.90;157882.13;4986821;28;20026;-73
2022/07/29 09:26:43;;;;;;;3.58;1.55;;;;;;;21.25;67.56;157858.88;4967778;28;20038;-73
2022/07/29 09:29:14;;;;;;;9.27;1.70;;;;;;;21.30;67.20;157873.09;4989910;28;20137;-73
2022/07/29 09:31:42;;;;;;;8.57;1.80;;;;;;;21.32;66.49;157878.28;4968139;28;20452;-73
2022/07/29 09:34:09;;;;;;;3.25;1.35;;;;;;;21.39;67.92;157895.03;4987306;28;20542;-71
2022/07/29 09:36:46;;;;;;;4.05;1.58;;;;;;;21.60;65.44;157946.75;4989106;28;20042;-71
2022/07/29 09:39:14;;;;;;;3.53;1.30;;;;;;;21.56;63.11;157937.69;5002943;28;20025;-72
2022/07/29 09:42:01;;;;;;;5.50;1.63;;;;;;;21.56;63.68;157938.97;4981628;28;20033;-73
2022/07/29 09:44:26;;;;;;;6.65;1.40;;;;;;;21.62;67.38;157953.19;4985968;28;20037;-73
2022/07/29 09:46:58;;;;;;;3.92;1.30;;;;;;;21.52;64.71;157927.38;5001981;28;20030;-73
2022/07/29 09:49:24;;;;;;;3.95;1.60;;;;;;;21.44;68.50;157908.03;4984288;28;20113;-71
2022/07/29 09:52:08;;;;;;;6.43;1.20;;;;;;;21.53;66.26;157931.25;4984506;28;20041;-73
2022/07/29 09:54:38;;;;;;;5.95;1.38;;;;;;;21.57;66.32;157940.31;5015576;28;20042;-72
2022/07/29 09:57:12;;;;;;;4.70;1.48;;;;;;;21.63;65.86;157954.50;4988729;28;20045;-73
2022/07/29 09:59:38;;;;;;;2.35;1.30;;;;;;;21.60;67.52;157946.75;4983554;28;20042;-72
2022/07/29 10:02:14;;;;;;;6.32;1.55;;;;;;;21.61;66.93;157950.63;4986031;28;20038;-73
2022/07/29 10:04:41;;;;;;;3.33;1.30;;;;;;;21.58;68.68;157944.16;4967241;28;20603;-72
2022/07/29 10:07:08;;;;;;;4.28;1.40;;;;;;;21.64;67.50;157957.06;4984339;28;20073;-73
2022/07/29 10:09:33;;;;;;;6.07;1.40;;;;;;;21.65;69.40;157960.94;4987097;28;20752;-73
2022/07/29 10:12:17;;;;;;;5.85;1.50;;;;;;;21.58;65.91;157944.16;4988017;28;20126;-73
2022/07/29 10:14:43;;;;;;;5.90;1.30;;;;;;;21.59;67.16;157945.47;4987240;28;20022;-73
2022/07/29 10:17:10;;;;;;;4.03;1.23;;;;;;;21.57;66.80;157941.59;4986659;28;20120;-73
2022/07/29 10:19:38;;;;;;;4.35;1.67;;;;;;;21.53;68.29;157931.25;5018105;28;20038;-71
2022/07/29 10:22:08;;;;;;;9.52;1.70;;;;;;;21.58;67.56;157942.88;4984632;28;20427;-71
2022/07/29 10:24:35;;;;;;;5.00;1.30;;;;;;;21.53;67.18;157931.25;4999093;28;20431;-71
2022/07/29 10:27:03;;;;;;;5.18;1.60;;;;;;;21.55;66.44;157936.44;4983298;28;20030;-74
2022/07/29 10:29:31;;;;;;;8.85;1.38;;;;;;;21.64;67.08;157957.06;4997104;28;20053;-73
2022/07/29 10:32:34;;;;;;;5.07;1.40;;;;;;;21.86;65.05;158013.88;4998549;28;20487;-72
2022/07/29 10:35:18;;;;;;;;;;;;;;;22.05;62.82;158061.66;4985420;28;20093;-71
2022/07/29 10:38:07;;;;;;;4.43;1.10;;;;;;;22.28;63.45;158118.53;5018416;28;19926;-71
2022/07/29 10:43:48;;;;;;;8.35;1.60;;;;;;;22.74;59.51;158234.81;4987208;28;20801;-72
2022/07/29 10:46:14;;;;;;;4.47;1.20;;;;;;;23.20;60.51;158351.13;4968685;28;20470;-72
2022/07/29 10:49:10;;;;;;;4.32;1.20;;;;;;;23.57;58.78;158442.91;4982994;28;20042;-73
2022/07/29 10:52:00;;;;;;;4.35;1.10;;;;;;;23.90;59.23;158526.94;4983159;28;20026;-72
2022/07/29 10:54:48;;;;;;;5.65;1.40;;;;;;;24.25;56.25;158614.88;5014578;28;21028;-72
2022/07/29 10:57:15;;;;;;;2.70;1.30;;;;;;;24.22;52.54;158607.09;4987144;28;20116;-73
2022/07/29 10:59:45;;;;;;;2.38;1.00;;;;;;;24.05;52.38;158565.78;5002270;28;20038;-74
2022/07/29 11:02:35;;;;;;;4.20;1.02;;;;;;;23.95;56.46;158539.88;4986893;28;20144;-72
2022/07/29 11:05:11;;;;;;;9.50;1.33;;;;;;;24.14;55.06;158586.44;4987246;28;20464;-73
2022/07/29 11:07:39;;;;;;;4.55;1.10;;;;;;;24.29;53.31;158626.50;4986979;28;20046;-73
2022/07/29 11:10:14;;;;;;;2.85;0.98;;;;;;;24.56;53.49;158692.50;4986986;28;20046;-72
2022/07/29 11:12:42;;;;;;;7.65;1.30;;;;;;;25.00;52.63;158805.00;4991600;28;20034;-71
2022/07/29 11:15:18;;;;;;;3.33;1.25;;;;;;;25.29;55.31;158876.22;4983852;28;20030;-73
2022/07/29 11:17:53;;;;;;;3.90;1.17;;;;;;;25.22;51.16;158860.66;4988629;28;20046;-73
2022/07/29 11:20:45;;;;;;;2.28;1.20;;;;;;;24.83;50.82;158761.06;4996727;28;20066;-73
2022/07/29 11:23:19;;;;;;;4.63;1.17;;;;;;;24.70;51.11;158727.44;4986743;28;20042;-73
2022/07/29 11:26:05;;;;;;;5.20;1.25;;;;;;;24.63;51.18;158710.59;4986298;28;20034;-72
2022/07/29 11:28:31;;;;;;;4.47;1.40;;;;;;;24.68;50.99;158723.56;4984230;28;20042;-74
2022/07/29 11:30:57;;;;;;;5.70;1.40;;;;;;;24.64;51.25;158713.22;4983567;28;20034;-74
2022/07/29 11:33:31;;;;;;;5.00;1.20;;;;;;;24.71;48.93;158730.00;4999217;28;20121;-72
2022/07/29 11:36:15;;;;;;;5.13;1.20;;;;;;;24.79;50.12;158750.66;4998952;28;20808;-72
2022/07/29 11:38:41;;;;;;;1.52;0.80;;;;;;;25.08;50.20;158823.13;4976721;28;20407;-72
2022/07/29 11:41:26;;;;;;;5.53;1.10;;;;;;;25.45;49.42;158917.63;4979441;28;20494;-72
2022/07/29 11:43:57;;;;;;;5.30;1.10;;;;;;;26.13;47.84;159089.72;4998612;28;20554;-72
2022/07/29 11:46:43;;;;;;;6.45;1.30;;;;;;;26.81;47.29;159260.63;4984847;28;20049;-72